Time;durP1;ratioP1;P1;durP2;ratioP2;P2;SDS_P1;SDS_P2;PMS_P1;PMS_P2;Temp;Humidity;BMP_temperature;BMP_pressure;BME280_temperature;BME280_humidity;BME280_pressure;Samples;Min_cycle;Max_cycle;Signal;HPM_P1;HPM_P2
2022/09/07 00:02:02;;;;;;;49.45;45.90;;;20.90;71.50;;;;;;5054900;28;20048;-83
2022/09/07 00:04:28;;;;;;;49.78;46.25;;;20.90;71.70;;;;;;5038848;28;20045;-82
2022/09/07 00:06:55;;;;;;;48.97;45.38;;;20.90;71.80;;;;;;5038599;28;20496;-83
2022/09/07 00:09:21;;;;;;;51.00;47.60;;;20.90;72.00;;;;;;5038938;28;20409;-82
2022/09/07 00:11:47;;;;;;;48.25;44.58;;;20.80;72.30;;;;;;5056824;28;20029;-82
2022/09/07 00:14:13;;;;;;;49.60;46.00;;;20.80;72.30;;;;;;5055212;28;20485;-82
2022/09/07 00:16:39;;;;;;;49.17;45.13;;;20.80;72.50;;;;;;5038187;28;20048;-82
2022/09/07 00:19:05;;;;;;;49.25;45.22;;;20.80;72.50;;;;;;5055259;28;20021;-82
2022/09/07 00:21:31;;;;;;;44.50;41.65;;;20.70;72.70;;;;;;5053623;28;20405;-82
2022/09/07 00:23:57;;;;;;;44.92;42.00;;;20.70;73.00;;;;;;5053236;28;20037;-82
2022/09/07 00:26:28;;;;;;;46.55;43.58;;;20.60;73.00;;;;;;5053500;28;20374;-81
2022/09/07 00:28:58;;;;;;;47.63;44.05;;;20.70;73.00;;;;;;5051799;28;20028;-83
2022/09/07 00:31:25;;;;;;;47.45;43.15;;;20.60;73.20;;;;;;5051336;28;20033;-82
2022/09/07 00:33:51;;;;;;;47.78;44.00;;;20.60;73.30;;;;;;5051941;28;20044;-82
2022/09/07 00:36:18;;;;;;;43.28;40.08;;;20.70;73.30;;;;;;5053239;28;20037;-82
2022/09/07 00:38:44;;;;;;;44.67;41.30;;;20.70;73.60;;;;;;5051901;28;20029;-83
2022/09/07 00:41:10;;;;;;;43.33;40.03;;;20.60;73.60;;;;;;5053296;28;20386;-82
2022/09/07 00:43:42;;;;;;;43.53;40.47;;;20.50;73.90;;;;;;5051446;28;20083;-83
2022/09/07 00:46:19;;;;;;;43.28;39.95;;;20.60;73.90;;;;;;5043795;28;20051;-83
2022/09/07 00:48:54;;;;;;;43.92;40.28;;;20.60;73.80;;;;;;5015044;28;20049;-82
2022/09/07 00:51:30;;;;;;;43.22;40.00;;;20.60;74.00;;;;;;5015694;28;20483;-82
2022/09/07 00:54:02;;;;;;;42.35;39.03;;;20.50;74.20;;;;;;5015903;28;20045;-82
2022/09/07 00:56:31;;;;;;;43.38;40.45;;;20.50;74.20;;;;;;5015674;28;20029;-83
2022/09/07 00:58:57;;;;;;;41.65;38.13;;;20.50;74.00;;;;;;4999548;28;20041;-83
2022/09/07 01:01:24;;;;;;;39.17;36.22;;;20.50;74.20;;;;;;5030873;28;20495;-83
2022/09/07 01:03:50;;;;;;;37.53;34.92;;;20.50;74.30;;;;;;5032564;28;20041;-82
2022/09/07 01:06:19;;;;;;;37.65;34.53;;;20.50;74.50;;;;;;4999061;28;20033;-83
2022/09/07 01:08:46;;;;;;;39.92;36.28;;;20.40;74.40;;;;;;5015260;28;20029;-83
2022/09/07 01:11:12;;;;;;;37.13;34.10;;;20.40;74.50;;;;;;4998489;28;20057;-82
2022/09/07 01:13:42;;;;;;;36.10;33.05;;;20.40;74.80;;;;;;5014951;28;20025;-83
2022/09/07 01:16:36;;;;;;;32.97;30.13;;;20.30;75.20;;;;;;5014415;28;20040;-82
2022/09/07 01:19:20;;;;;;;34.38;31.42;;;20.30;75.30;;;;;;5032582;28;20033;-83
2022/09/07 01:22:17;;;;;;;32.03;29.10;;;20.30;75.20;;;;;;5031168;28;20499;-83
2022/09/07 01:25:09;;;;;;;31.67;29.20;;;20.40;75.30;;;;;;5025160;28;20049;-82
2022/09/07 01:27:56;;;;;;;34.00;30.23;;;20.40;75.50;;;;;;5038488;28;20036;-82
2022/09/07 01:30:22;;;;;;;32.00;29.05;;;20.30;75.50;;;;;;5052028;28;20032;-82
2022/09/07 01:33:06;;;;;;;31.65;26.73;;;20.30;75.50;;;;;;5034182;28;20116;-82
2022/09/07 01:35:35;;;;;;;29.75;26.83;;;20.30;75.70;;;;;;5051356;28;20037;-82
2022/09/07 01:38:09;;;;;;;30.95;28.17;;;20.20;76.10;;;;;;5051169;28;20032;-83
2022/09/07 01:40:41;;;;;;;30.20;27.58;;;20.20;75.90;;;;;;5034816;28;20025;-82
2022/09/07 01:43:11;;;;;;;29.75;26.88;;;20.20;76.10;;;;;;5067218;28;20107;-82
2022/09/07 01:45:38;;;;;;;29.48;26.67;;;20.20;76.10;;;;;;5039928;28;20426;-82
2022/09/07 01:48:06;;;;;;;30.65;27.52;;;20.20;75.90;;;;;;5038218;28;20048;-82
2022/09/07 01:50:39;;;;;;;32.00;27.40;;;20.30;75.80;;;;;;5034292;28;20033;-82
2022/09/07 01:53:33;;;;;;;30.10;27.23;;;20.30;75.50;;;;;;5034799;28;20029;-81
2022/09/07 01:56:09;;;;;;;32.13;28.85;;;20.30;75.70;;;;;;5050243;28;20040;-82
2022/09/07 01:58:45;;;;;;;31.55;28.25;;;20.30;76.20;;;;;;5034940;28;20028;-83
2022/09/07 02:01:13;;;;;;;32.95;29.75;;;20.20;76.30;;;;;;5033082;28;20397;-82
2022/09/07 02:04:22;;;;;;;30.90;28.25;;;20.20;75.90;;;;;;5050233;28;20041;-82
2022/09/07 02:06:58;;;;;;;33.40;29.15;;;20.30;76.00;;;;;;5032286;28;20044;-82
2022/09/07 02:09:32;;;;;;;31.48;28.42;;;20.30;75.80;;;;;;5031303;28;20132;-83
2022/09/07 02:12:01;;;;;;;31.20;28.10;;;20.30;75.90;;;;;;5048956;28;20039;-82
2022/09/07 02:14:35;;;;;;;30.40;27.33;;;20.30;75.80;;;;;;5048979;28;20040;-82
2022/09/07 02:17:17;;;;;;;29.98;27.15;;;20.20;75.90;;;;;;5031083;28;20044;-82
2022/09/07 02:19:53;;;;;;;31.98;28.73;;;20.20;76.20;;;;;;5048792;28;20040;-82
2022/09/07 02:22:26;;;;;;;32.20;29.08;;;20.20;76.30;;;;;;5046940;28;20074;-82
2022/09/07 02:24:55;;;;;;;31.58;28.35;;;20.20;76.50;;;;;;5031495;28;20075;-82
2022/09/07 02:27:25;;;;;;;30.67;28.05;;;20.10;76.30;;;;;;5022941;28;20073;-82
2022/09/07 02:29:52;;;;;;;33.30;30.10;;;20.20;76.30;;;;;;4992903;28;20498;-82
2022/09/07 02:32:19;;;;;;;32.28;29.08;;;20.20;76.50;;;;;;5010949;28;20037;-83
2022/09/07 02:34:45;;;;;;;34.05;30.95;;;20.10;76.20;;;;;;5028203;28;20408;-83
2022/09/07 02:37:11;;;;;;;33.40;30.60;;;20.20;76.50;;;;;;5012205;28;20045;-82
2022/09/07 02:39:37;;;;;;;31.95;28.85;;;20.10;77.00;;;;;;5013136;28;20025;-82
2022/09/07 02:42:04;;;;;;;32.30;29.33;;;20.10;76.70;;;;;;5031923;28;20044;-82
2022/09/07 02:44:31;;;;;;;33.47;30.25;;;20.10;76.60;;;;;;5038549;28;20053;-82
2022/09/07 02:47:00;;;;;;;32.30;29.17;;;20.10;76.80;;;;;;5058380;28;20017;-82
2022/09/07 02:49:34;;;;;;;33.60;30.67;;;20.10;76.70;;;;;;5049382;28;20055;-82
2022/09/07 02:52:25;;;;;;;32.78;29.48;;;20.10;76.60;;;;;;5049230;28;20466;-82
2022/09/07 02:54:57;;;;;;;35.03;31.67;;;20.10;76.90;;;;;;5049402;28;20033;-82
2022/09/07 02:57:47;;;;;;;32.33;29.23;;;20.00;77.30;;;;;;5050687;28;20028;-83
2022/09/07 03:00:19;;;;;;;29.65;27.40;;;19.80;77.80;;;;;;5050366;28;20032;-82
2022/09/07 03:02:57;;;;;;;31.40;28.70;;;19.80;78.00;;;;;;5049380;28;20028;-83
2022/09/07 03:05:29;;;;;;;31.13;28.27;;;19.70;78.10;;;;;;5050422;28;20044;-82
2022/09/07 03:08:03;;;;;;;30.08;27.00;;;19.80;77.80;;;;;;5048920;28;20033;-82
2022/09/07 03:10:29;;;;;;;29.60;26.42;;;19.80;77.50;;;;;;5049452;28;20025;-82
2022/09/07 03:12:55;;;;;;;27.98;25.38;;;19.90;77.20;;;;;;5049272;28;20041;-82
2022/09/07 03:15:23;;;;;;;28.80;26.13;;;19.90;77.20;;;;;;5032090;28;20045;-82
2022/09/07 03:17:50;;;;;;;27.30;24.73;;;19.80;77.60;;;;;;5049271;28;20025;-82
2022/09/07 03:20:16;;;;;;;28.27;25.20;;;19.80;77.40;;;;;;5049218;28;20029;-82
2022/09/07 03:22:46;;;;;;;26.77;24.00;;;19.80;77.40;;;;;;5048730;28;20033;-82
2022/09/07 03:25:12;;;;;;;26.27;23.92;;;19.80;77.90;;;;;;5032425;28;20494;-82
2022/09/07 03:27:38;;;;;;;26.02;22.15;;;19.70;78.60;;;;;;5049351;28;20033;-82
2022/09/07 03:30:06;;;;;;;26.00;22.25;;;19.60;78.70;;;;;;5048655;28;20036;-82
2022/09/07 03:32:33;;;;;;;27.23;20.38;;;19.60;79.20;;;;;;5049109;28;20036;-82
2022/09/07 03:34:59;;;;;;;26.35;19.50;;;19.50;79.50;;;;;;5050369;28;20029;-82
2022/09/07 03:37:25;;;;;;;24.63;20.13;;;19.50;79.40;;;;;;5048819;28;20029;-82
2022/09/07 03:39:52;;;;;;;25.77;22.67;;;19.60;79.10;;;;;;5048902;28;20029;-82
2022/09/07 03:42:18;;;;;;;22.40;20.05;;;19.60;79.20;;;;;;5050267;28;20037;-82
2022/09/07 03:44:44;;;;;;;24.80;20.70;;;19.60;79.30;;;;;;5050032;28;20048;-82
2022/09/07 03:47:10;;;;;;;23.25;21.33;;;19.50;79.40;;;;;;5058021;28;20405;-82
2022/09/07 03:49:36;;;;;;;30.00;21.27;;;19.50;79.30;;;;;;5032258;28;20064;-82
2022/09/07 03:52:03;;;;;;;25.90;20.48;;;19.50;79.50;;;;;;5049782;28;20458;-82
2022/09/07 03:54:29;;;;;;;28.60;21.33;;;19.50;79.40;;;;;;5048984;28;20036;-82
2022/09/07 03:56:55;;;;;;;24.85;22.17;;;19.60;79.10;;;;;;5018137;28;20029;-82
2022/09/07 03:59:22;;;;;;;23.70;21.70;;;19.60;79.90;;;;;;5052694;28;20033;-81
2022/09/07 04:01:48;;;;;;;29.58;23.77;;;19.60;79.10;;;;;;5052123;28;20028;-82
2022/09/07 04:04:14;;;;;;;27.83;24.13;;;19.60;79.10;;;;;;5052575;28;20041;-82
2022/09/07 04:06:40;;;;;;;26.88;24.30;;;19.60;79.30;;;;;;5035378;28;20048;-82
2022/09/07 04:09:07;;;;;;;26.52;23.92;;;19.60;79.00;;;;;;5053887;28;20041;-82
2022/09/07 04:11:34;;;;;;;24.20;20.75;;;19.50;79.20;;;;;;5052006;28;20040;-82
2022/09/07 04:14:00;;;;;;;23.85;19.95;;;19.40;79.70;;;;;;5035705;28;20053;-82
2022/09/07 04:16:27;;;;;;;23.83;21.30;;;19.30;80.30;;;;;;5051900;28;20501;-81
2022/09/07 04:18:57;;;;;;;24.58;21.30;;;19.30;80.40;;;;;;5052445;28;20041;-82
2022/09/07 04:21:25;;;;;;;25.92;21.30;;;19.20;81.10;;;;;;5052167;28;20017;-82
2022/09/07 04:23:51;;;;;;;25.00;22.33;;;19.20;80.90;;;;;;5052140;28;20044;-82
2022/09/07 04:26:19;;;;;;;24.60;22.35;;;19.30;80.80;;;;;;5052345;28;20017;-82
2022/09/07 04:28:45;;;;;;;26.55;23.77;;;19.30;80.70;;;;;;5031761;28;20427;-82
2022/09/07 04:31:12;;;;;;;27.05;24.45;;;19.30;80.50;;;;;;5031665;28;20406;-82
2022/09/07 04:33:38;;;;;;;27.58;24.95;;;19.30;80.50;;;;;;5048713;28;20033;-82
2022/09/07 04:36:04;;;;;;;27.27;24.60;;;19.30;80.70;;;;;;5048635;28;20037;-82
2022/09/07 04:38:31;;;;;;;26.65;23.75;;;19.40;80.60;;;;;;5048499;28;20033;-82
2022/09/07 04:41:08;;;;;;;26.95;24.10;;;19.30;80.40;;;;;;5051776;28;20025;-82
2022/09/07 04:43:35;;;;;;;34.30;26.30;;;19.40;80.40;;;;;;5035026;28;20053;-82
2022/09/07 04:46:22;;;;;;;28.90;26.10;;;19.40;80.20;;;;;;5059413;28;20020;-82
2022/09/07 04:48:49;;;;;;;28.85;25.90;;;19.40;80.60;;;;;;5048068;28;20052;-82
2022/09/07 04:51:15;;;;;;;29.25;26.15;;;19.30;80.50;;;;;;5015356;28;20029;-82
2022/09/07 04:53:41;;;;;;;30.35;27.85;;;19.40;80.40;;;;;;5031841;28;20033;-82
2022/09/07 04:56:07;;;;;;;30.00;26.90;;;19.30;80.90;;;;;;5031785;28;20497;-82
2022/09/07 04:58:34;;;;;;;28.02;25.42;;;19.20;81.20;;;;;;5031688;28;20041;-82
2022/09/07 05:01:02;;;;;;;29.95;27.20;;;19.20;81.50;;;;;;5031321;28;20040;-82
2022/09/07 05:03:32;;;;;;;31.30;28.00;;;19.30;81.40;;;;;;4998782;28;20478;-82
2022/09/07 05:06:04;;;;;;;36.42;28.02;;;19.30;81.30;;;;;;5015250;28;20040;-82
2022/09/07 05:08:44;;;;;;;34.45;28.08;;;19.20;81.60;;;;;;5012352;28;20048;-82
2022/09/07 05:11:11;;;;;;;32.58;29.27;;;19.30;81.50;;;;;;5016269;28;20033;-82
2022/09/07 05:13:37;;;;;;;35.08;31.88;;;19.30;81.20;;;;;;5015065;28;20033;-82
2022/09/07 05:16:20;;;;;;;33.15;29.73;;;19.40;81.10;;;;;;5027718;28;20041;-83
2022/09/07 05:18:50;;;;;;;31.42;28.80;;;19.30;81.40;;;;;;5012704;28;20046;-82
2022/09/07 05:21:18;;;;;;;31.88;28.92;;;19.20;81.90;;;;;;5011706;28;20033;-82
2022/09/07 05:23:48;;;;;;;33.17;29.95;;;19.20;82.30;;;;;;5011379;28;20034;-81
2022/09/07 05:26:14;;;;;;;32.40;29.40;;;19.20;82.30;;;;;;5011443;28;20037;-83
2022/09/07 05:28:40;;;;;;;31.70;28.85;;;19.10;82.40;;;;;;5027434;28;20462;-83
2022/09/07 05:31:08;;;;;;;34.90;31.30;;;19.20;82.00;;;;;;5039552;28;20040;-82
2022/09/07 05:33:34;;;;;;;32.80;29.55;;;19.30;82.00;;;;;;5050696;28;20025;-82
2022/09/07 05:36:01;;;;;;;35.33;32.08;;;19.20;82.10;;;;;;5050778;28;20032;-83
2022/09/07 05:38:27;;;;;;;31.17;28.23;;;19.20;82.40;;;;;;5050636;28;20029;-82
2022/09/07 05:40:53;;;;;;;33.53;30.15;;;19.10;82.90;;;;;;5038979;28;20029;-82
2022/09/07 05:43:20;;;;;;;34.20;31.08;;;19.20;82.70;;;;;;5030599;28;20037;-82
2022/09/07 05:45:46;;;;;;;31.38;28.48;;;19.20;82.40;;;;;;5016666;28;20033;-82
2022/09/07 05:48:13;;;;;;;33.60;30.75;;;19.20;82.70;;;;;;5036634;28;20510;-83
2022/09/07 05:50:39;;;;;;;34.58;31.63;;;19.20;82.50;;;;;;5050573;28;20040;-82
2022/09/07 05:53:05;;;;;;;35.33;32.00;;;19.30;82.10;;;;;;5050086;28;20497;-82
2022/09/07 05:55:32;;;;;;;32.47;29.27;;;19.30;82.00;;;;;;5050507;28;20033;-82
2022/09/07 05:57:58;;;;;;;32.92;29.50;;;19.40;81.80;;;;;;5034079;28;20033;-82
2022/09/07 06:00:24;;;;;;;33.60;29.90;;;19.40;81.70;;;;;;5051414;28;20029;-83
2022/09/07 06:02:50;;;;;;;31.80;29.30;;;19.40;81.80;;;;;;5051409;28;20481;-83
2022/09/07 06:05:16;;;;;;;32.20;28.92;;;19.40;81.70;;;;;;5049900;28;20049;-82
2022/09/07 06:07:47;;;;;;;32.63;29.67;;;19.40;81.80;;;;;;5050282;28;20029;-82
2022/09/07 06:10:13;;;;;;;33.78;30.27;;;19.40;82.30;;;;;;5050369;28;20044;-82
2022/09/07 06:12:43;;;;;;;32.35;29.17;;;19.40;81.80;;;;;;5051333;28;20032;-82
2022/09/07 06:15:10;;;;;;;32.47;29.40;;;19.50;81.70;;;;;;5032839;28;20044;-82
2022/09/07 06:17:36;;;;;;;32.22;28.92;;;19.50;81.60;;;;;;5050124;28;20287;-82
2022/09/07 06:20:03;;;;;;;30.55;27.95;;;19.50;81.40;;;;;;5032827;28;20421;-82
2022/09/07 06:22:29;;;;;;;42.90;30.83;;;19.50;81.80;;;;;;5048971;28;20044;-82
2022/09/07 06:24:55;;;;;;;32.25;29.15;;;19.50;81.80;;;;;;5049778;28;20500;-82
2022/09/07 06:27:21;;;;;;;31.02;28.05;;;19.50;81.80;;;;;;5049854;28;20028;-82
2022/09/07 06:29:47;;;;;;;30.55;27.40;;;19.50;81.80;;;;;;5049621;28;20033;-82
2022/09/07 06:32:13;;;;;;;31.63;27.70;;;19.60;81.50;;;;;;5047299;28;20047;-82
2022/09/07 06:34:40;;;;;;;33.08;28.23;;;19.50;81.60;;;;;;5033569;28;20046;-82
2022/09/07 06:37:06;;;;;;;30.52;27.45;;;19.60;81.70;;;;;;5051181;28;20114;-82
2022/09/07 06:39:33;;;;;;;30.90;28.23;;;19.50;81.90;;;;;;5049567;28;20039;-82
2022/09/07 06:41:59;;;;;;;31.55;27.58;;;19.60;81.90;;;;;;5066091;28;20017;-83
2022/09/07 06:44:25;;;;;;;30.30;27.52;;;19.60;82.00;;;;;;5043566;28;20406;-82
2022/09/07 06:46:51;;;;;;;31.88;28.70;;;19.60;82.20;;;;;;5058595;28;20033;-82
2022/09/07 06:49:17;;;;;;;34.13;28.73;;;19.50;82.60;;;;;;5048981;28;20091;-82
2022/09/07 06:51:44;;;;;;;31.25;28.33;;;19.50;82.60;;;;;;5049704;28;20029;-82
2022/09/07 06:54:10;;;;;;;30.75;28.05;;;19.60;82.40;;;;;;5050948;28;20021;-82
2022/09/07 06:56:36;;;;;;;36.78;34.03;;;19.70;82.10;;;;;;5049615;28;20036;-82
2022/09/07 06:59:02;;;;;;;38.40;35.20;;;19.80;81.60;;;;;;5049282;28;20478;-82
2022/09/07 07:01:29;;;;;;;40.47;36.72;;;19.90;81.30;;;;;;5031926;28;20052;-83
2022/09/07 07:03:55;;;;;;;41.33;38.08;;;19.80;81.60;;;;;;5049970;28;20032;-81
2022/09/07 07:06:22;;;;;;;39.80;36.70;;;19.90;81.30;;;;;;5049384;28;20049;-84
2022/09/07 07:08:52;;;;;;;41.47;38.00;;;20.00;81.40;;;;;;5049247;28;20390;-84
2022/09/07 07:11:18;;;;;;;42.38;38.45;;;19.90;81.70;;;;;;5049268;28;20032;-84
2022/09/07 07:13:44;;;;;;;41.85;38.75;;;19.90;81.70;;;;;;5048968;28;20405;-83
2022/09/07 07:16:14;;;;;;;45.03;41.35;;;20.00;81.60;;;;;;5049257;28;20051;-83
2022/09/07 07:18:41;;;;;;;43.47;39.75;;;20.10;81.40;;;;;;5049462;28;20028;-83
2022/09/07 07:21:08;;;;;;;42.40;39.15;;;20.20;81.20;;;;;;5049455;28;20041;-83
2022/09/07 07:23:34;;;;;;;41.72;38.42;;;20.30;80.90;;;;;;5049197;28;20017;-83
2022/09/07 07:26:05;;;;;;;41.42;37.75;;;20.30;80.60;;;;;;5032587;28;20060;-83
2022/09/07 07:28:31;;;;;;;44.10;40.75;;;20.40;80.20;;;;;;5032344;28;20048;-83
2022/09/07 07:30:59;;;;;;;42.85;39.47;;;20.50;79.90;;;;;;5049289;28;20426;-83
2022/09/07 07:33:30;;;;;;;42.35;38.60;;;20.70;79.50;;;;;;5054505;28;20032;-83
2022/09/07 07:36:09;;;;;;;43.22;39.65;;;20.60;79.50;;;;;;5036364;28;20040;-82
2022/09/07 07:38:36;;;;;;;43.70;39.72;;;20.70;80.40;;;;;;5052903;28;20040;-83
2022/09/07 07:41:02;;;;;;;43.72;40.08;;;20.70;79.50;;;;;;5052960;28;20029;-83
2022/09/07 07:43:28;;;;;;;49.95;45.65;;;20.80;79.20;;;;;;5052801;28;20393;-83
2022/09/07 07:45:56;;;;;;;48.17;44.20;;;20.90;79.10;;;;;;5060980;28;20041;-83
2022/09/07 07:48:22;;;;;;;53.80;49.78;;;20.90;78.80;;;;;;5054802;28;20402;-82
2022/09/07 07:51:05;;;;;;;61.30;56.47;;;21.00;78.60;;;;;;5036411;28;20037;-83
2022/09/07 07:53:32;;;;;;;59.53;55.08;;;20.90;78.30;;;;;;5036494;28;20041;-83
2022/09/07 07:55:58;;;;;;;65.35;60.33;;;21.00;78.40;;;;;;5052980;28;20425;-82
2022/09/07 07:58:26;;;;;;;65.60;61.13;;;21.00;78.20;;;;;;5053935;28;20037;-82
2022/09/07 08:00:53;;;;;;;69.40;64.28;;;21.00;77.90;;;;;;5052284;28;20033;-83
2022/09/07 08:03:22;;;;;;;69.63;64.95;;;21.10;77.70;;;;;;5053801;28;20021;-83
2022/09/07 08:05:49;;;;;;;69.43;64.57;;;21.20;77.30;;;;;;5052631;28;20037;-83
2022/09/07 08:08:15;;;;;;;70.18;65.43;;;21.20;76.70;;;;;;5053978;28;20052;-83
2022/09/07 08:10:41;;;;;;;67.65;62.92;;;21.20;76.30;;;;;;5053610;28;20037;-83
2022/09/07 08:13:07;;;;;;;68.07;63.25;;;21.10;76.40;;;;;;5052098;28;20047;-83
2022/09/07 08:15:44;;;;;;;70.82;66.32;;;21.10;76.30;;;;;;5051974;28;20036;-83
2022/09/07 08:18:11;;;;;;;67.82;63.00;;;21.10;76.30;;;;;;5052483;28;20025;-83
2022/09/07 08:20:40;;;;;;;71.00;66.35;;;21.10;76.50;;;;;;5035680;28;20041;-83
2022/09/07 08:23:07;;;;;;;71.00;66.03;;;21.20;76.40;;;;;;5053519;28;20040;-83
2022/09/07 08:25:34;;;;;;;72.03;66.60;;;21.20;76.40;;;;;;5034877;28;20049;-83
2022/09/07 08:28:00;;;;;;;69.00;64.03;;;21.20;76.60;;;;;;5051904;28;20028;-83
2022/09/07 08:30:26;;;;;;;70.47;65.55;;;21.10;76.30;;;;;;5051762;28;20029;-83
2022/09/07 08:32:52;;;;;;;66.60;61.85;;;21.10;76.50;;;;;;5053239;28;20040;-83
2022/09/07 08:35:19;;;;;;;69.43;64.55;;;21.00;76.40;;;;;;5019117;28;20037;-83
2022/09/07 08:37:45;;;;;;;73.47;67.88;;;21.00;76.60;;;;;;5019454;28;20067;-82
2022/09/07 08:40:15;;;;;;;68.28;63.92;;;21.10;76.60;;;;;;5051629;28;20462;-84
2022/09/07 08:43:17;;;;;;;70.28;65.50;;;21.10;76.40;;;;;;5050983;28;20044;-83
2022/09/07 08:45:45;;;;;;;71.05;66.50;;;21.20;76.40;;;;;;4982053;28;20045;-83
2022/09/07 08:48:13;;;;;;;74.05;68.30;;;21.20;76.50;;;;;;4994209;28;20050;-83
2022/09/07 08:51:10;;;;;;;73.40;67.72;;;21.30;76.30;;;;;;4994718;28;20033;-83
2022/09/07 08:53:39;;;;;;;70.70;65.50;;;21.30;76.30;;;;;;5010925;28;20038;-83
2022/09/07 08:56:09;;;;;;;68.80;64.10;;;21.30;76.40;;;;;;4994250;28;20049;-83
2022/09/07 08:58:43;;;;;;;65.93;61.22;;;21.30;76.20;;;;;;4978396;28;20037;-83
2022/09/07 09:01:19;;;;;;;71.05;65.65;;;21.30;76.00;;;;;;4993992;28;20049;-83
2022/09/07 09:03:48;;;;;;;67.72;62.83;;;21.30;76.40;;;;;;4994326;28;20026;-83
2022/09/07 09:06:56;;;;;;;64.18;59.55;;;21.40;76.20;;;;;;4994378;28;20519;-83
2022/09/07 09:09:26;;;;;;;62.20;57.08;;;21.60;75.40;;;;;;5009848;28;20045;-84
2022/09/07 09:12:10;;;;;;;65.50;60.58;;;21.70;74.80;;;;;;4994229;28;20032;-83
2022/09/07 09:14:48;;;;;;;54.45;50.05;;;21.70;74.60;;;;;;4978368;28;20042;-83
2022/09/07 09:17:31;;;;;;;58.65;54.50;;;21.60;73.60;;;;;;5010042;28;20053;-83
2022/09/07 09:20:16;;;;;;;56.25;52.03;;;21.60;73.70;;;;;;4994155;28;20033;-84
2022/09/07 09:22:42;;;;;;;56.78;52.58;;;21.60;73.50;;;;;;5052326;28;20029;-83
2022/09/07 09:25:16;;;;;;;56.42;52.22;;;21.60;73.50;;;;;;5050934;28;20041;-83
2022/09/07 09:27:42;;;;;;;57.22;53.03;;;21.60;72.80;;;;;;5052116;28;20029;-83
2022/09/07 09:30:19;;;;;;;57.08;52.83;;;21.60;73.20;;;;;;5034091;28;20033;-83
2022/09/07 09:32:47;;;;;;;56.28;52.28;;;21.60;72.60;;;;;;5034781;28;20021;-84
2022/09/07 09:35:18;;;;;;;60.22;55.17;;;21.60;72.60;;;;;;5052194;28;20037;-83
2022/09/07 09:37:45;;;;;;;62.35;58.22;;;21.60;72.80;;;;;;5050946;28;20017;-83
2022/09/07 09:40:32;;;;;;;60.65;56.45;;;21.70;73.00;;;;;;5014173;28;20064;-83
2022/09/07 09:43:05;;;;;;;60.55;56.28;;;21.70;72.60;;;;;;5014087;28;20042;-84
2022/09/07 09:45:35;;;;;;;62.97;58.63;;;21.80;73.00;;;;;;5037786;28;20037;-83
2022/09/07 09:48:03;;;;;;;59.63;55.35;;;21.70;72.90;;;;;;5038757;28;20532;-83
2022/09/07 09:50:31;;;;;;;57.50;53.55;;;21.70;73.30;;;;;;5017574;28;20045;-83
2022/09/07 09:52:57;;;;;;;61.85;57.63;;;21.70;73.80;;;;;;5033917;28;20025;-84
2022/09/07 09:55:30;;;;;;;63.17;58.85;;;21.70;73.90;;;;;;5033708;28;20025;-83
2022/09/07 09:58:46;;;;;;;62.80;58.65;;;21.80;73.80;;;;;;5034598;28;20037;-83
2022/09/07 10:01:23;;;;;;;61.45;57.08;;;21.80;74.00;;;;;;5047532;28;20037;-84
2022/09/07 10:03:49;;;;;;;60.78;56.63;;;21.70;74.10;;;;;;5033809;28;20037;-84
2022/09/07 10:06:16;;;;;;;61.83;57.75;;;21.80;73.60;;;;;;5033687;28;20119;-84
2022/09/07 10:08:56;;;;;;;61.15;56.78;;;21.80;72.80;;;;;;5050141;28;20033;-84
2022/09/07 10:11:46;;;;;;;62.83;58.73;;;21.80;73.00;;;;;;5050370;28;20469;-83
2022/09/07 10:14:26;;;;;;;57.33;53.53;;;22.00;73.00;;;;;;5050086;28;20032;-83
2022/09/07 10:16:52;;;;;;;56.13;52.33;;;21.90;71.60;;;;;;5049790;28;20040;-84
2022/09/07 10:19:39;;;;;;;56.13;52.35;;;21.90;71.50;;;;;;5050247;28;20545;-83
2022/09/07 10:22:24;;;;;;;55.22;51.30;;;21.80;71.90;;;;;;5051817;28;20029;-83
2022/09/07 10:24:50;;;;;;;54.85;51.33;;;21.80;72.00;;;;;;5052985;28;20469;-82
2022/09/07 10:27:37;;;;;;;60.00;55.72;;;21.80;71.00;;;;;;5050931;28;20509;-84
2022/09/07 10:30:12;;;;;;;57.83;54.22;;;21.80;72.20;;;;;;5050872;28;20474;-83
2022/09/07 10:33:02;;;;;;;66.20;62.00;;;21.90;72.20;;;;;;5017511;28;20390;-83
2022/09/07 10:36:06;;;;;;;60.95;56.92;;;21.90;72.40;;;;;;5049939;28;20031;-84
2022/09/07 10:38:35;;;;;;;56.28;52.30;;;22.10;72.10;;;;;;4992615;28;20064;-83
2022/09/07 10:41:08;;;;;;;56.05;52.20;;;22.10;71.10;;;;;;4992646;28;20080;-84
2022/09/07 10:43:42;;;;;;;59.38;55.22;;;22.10;71.10;;;;;;4994897;28;20061;-84
2022/09/07 10:46:47;;;;;;;60.33;56.17;;;22.20;71.20;;;;;;4995763;28;20048;-84
2022/09/07 10:49:24;;;;;;;62.72;58.97;;;22.30;71.30;;;;;;4975846;28;20543;-84
2022/09/07 10:52:12;;;;;;;68.65;64.57;;;22.30;72.00;;;;;;5004675;28;20042;-84
2022/09/07 10:54:38;;;;;;;70.60;66.43;;;22.20;72.50;;;;;;4989192;28;20105;-84
2022/09/07 10:57:28;;;;;;;70.72;66.65;;;22.30;73.10;;;;;;4989217;28;20470;-84
2022/09/07 11:00:24;;;;;;;67.75;63.67;;;22.30;72.70;;;;;;5004950;28;20399;-84
2022/09/07 11:03:37;;;;;;;61.75;57.88;;;22.30;72.60;;;;;;4963716;28;20034;-84
2022/09/07 11:06:26;;;;;;;61.63;57.67;;;22.20;72.30;;;;;;4981421;28;20050;-84
2022/09/07 11:09:07;;;;;;;62.17;58.13;;;22.20;72.30;;;;;;4988757;28;20050;-83
2022/09/07 11:11:54;;;;;;;65.22;60.70;;;22.20;72.10;;;;;;4987651;28;20497;-84
2022/09/07 11:14:20;;;;;;;58.80;54.95;;;22.20;72.20;;;;;;5036772;28;20049;-84
2022/09/07 11:17:11;;;;;;;63.67;59.80;;;22.30;72.00;;;;;;5012840;28;20040;-84
2022/09/07 11:19:55;;;;;;;57.90;54.60;;;22.30;71.50;;;;;;5029146;28;20033;-84
2022/09/07 11:22:35;;;;;;;55.67;52.22;;;22.40;71.20;;;;;;5014371;28;20033;-84
2022/09/07 11:25:20;;;;;;;58.58;54.90;;;22.40;70.80;;;;;;5030656;28;20033;-84
2022/09/07 11:27:48;;;;;;;56.35;52.92;;;22.40;70.40;;;;;;5038191;28;20037;-84
2022/09/07 11:30:45;;;;;;;59.13;55.53;;;22.40;70.50;;;;;;5048661;28;20032;-83
2022/09/07 11:33:13;;;;;;;59.85;56.47;;;22.30;70.60;;;;;;5049236;28;20025;-83
2022/09/07 11:35:52;;;;;;;62.35;58.70;;;22.20;70.80;;;;;;5032058;28;20036;-84
2022/09/07 11:38:33;;;;;;;60.40;56.70;;;22.20;71.00;;;;;;5034436;28;20446;-84
2022/09/07 11:41:24;;;;;;;59.05;55.25;;;22.10;71.10;;;;;;5025092;28;20053;-84
2022/09/07 11:44:13;;;;;;;;;;;22.10;71.10;;;;;;5064895;28;20482;-83
2022/09/07 11:46:44;;;;;;;54.25;50.83;;;22.10;71.20;;;;;;5052378;28;19917;-84
2022/09/07 11:49:19;;;;;;;54.97;51.03;;;22.10;71.10;;;;;;5032240;28;20409;-83
2022/09/07 11:52:39;;;;;;;52.88;49.80;;;22.10;71.00;;;;;;5033279;28;20521;-84
2022/09/07 11:55:21;;;;;;;52.03;48.83;;;22.00;70.90;;;;;;5011479;28;20033;-83
2022/09/07 11:58:23;;;;;;;57.03;53.50;;;21.90;70.90;;;;;;5011610;28;20033;-83
2022/09/07 12:01:08;;;;;;;53.63;50.42;;;22.00;71.70;;;;;;5013063;28;20034;-84
2022/09/07 12:04:12;;;;;;;55.90;52.65;;;22.00;71.10;;;;;;5026989;28;20038;-84
2022/09/07 12:07:01;;;;;;;47.47;44.55;;;22.00;71.00;;;;;;5027611;28;20049;-84
2022/09/07 12:09:34;;;;;;;54.35;50.63;;;21.90;71.20;;;;;;5011171;28;20041;-83
2022/09/07 12:12:03;;;;;;;56.80;53.20;;;21.90;71.40;;;;;;5027793;28;20541;-83
2022/09/07 12:14:32;;;;;;;57.80;54.20;;;21.90;71.70;;;;;;5027315;28;20039;-84
2022/09/07 12:17:03;;;;;;;53.28;50.03;;;22.00;71.80;;;;;;5026986;28;20037;-84
2022/09/07 12:19:29;;;;;;;56.92;53.22;;;22.10;71.10;;;;;;5014802;28;20037;-84
2022/09/07 12:21:56;;;;;;;56.50;52.80;;;22.10;71.00;;;;;;5014694;28;20422;-84
2022/09/07 12:24:52;;;;;;;57.35;53.65;;;22.00;70.70;;;;;;5014869;28;20033;-84
2022/09/07 12:27:21;;;;;;;55.38;51.83;;;22.10;70.40;;;;;;5043692;28;20048;-84
2022/09/07 12:29:48;;;;;;;59.53;55.78;;;22.20;70.20;;;;;;5053759;28;20036;-83
2022/09/07 12:32:45;;;;;;;58.15;54.35;;;22.20;70.30;;;;;;5034858;28;20037;-84
2022/09/07 12:35:32;;;;;;;56.65;53.05;;;22.20;70.10;;;;;;5053605;28;20040;-84
2022/09/07 12:37:59;;;;;;;56.15;52.70;;;22.00;70.50;;;;;;5052328;28;20512;-84
2022/09/07 12:40:32;;;;;;;56.03;52.53;;;21.90;70.90;;;;;;5051980;28;20033;-83
2022/09/07 12:43:12;;;;;;;58.08;54.28;;;21.90;71.10;;;;;;5053286;28;20029;-84
2022/09/07 12:45:39;;;;;;;60.10;55.92;;;22.00;70.80;;;;;;5057790;28;20047;-83
2022/09/07 12:48:14;;;;;;;60.97;57.20;;;21.90;70.80;;;;;;5056842;28;20033;-84
2022/09/07 12:51:12;;;;;;;57.63;54.28;;;21.90;71.10;;;;;;5051745;28;20037;-84
2022/09/07 12:54:18;;;;;;;56.35;52.97;;;21.80;70.90;;;;;;5048796;28;20400;-84
2022/09/07 12:56:48;;;;;;;58.67;55.03;;;21.70;71.20;;;;;;5022735;28;20042;-84